Time;durP1;ratioP1;P1;durP2;ratioP2;P2;SDS_P1;SDS_P2;PMS_P1;PMS_P2;Temp;Humidity;BMP_temperature;BMP_pressure;BME280_temperature;BME280_humidity;BME280_pressure;Samples;Min_cycle;Max_cycle;Signal;HPM_P1;HPM_P2
2021/06/27 00:02:22;;;;;;;3.65;3.22;;;;;;;;;;5084112;28;20032;-78
2021/06/27 00:04:48;;;;;;;8.70;3.05;;;;;;;;;;5083592;28;20033;-78
2021/06/27 00:07:13;;;;;;;4.88;3.58;;;;;;;;;;5082666;28;20044;-78
2021/06/27 00:09:40;;;;;;;5.32;3.40;;;;;;;;;;5081485;28;20055;-78
2021/06/27 00:12:07;;;;;;;6.30;3.50;;;;;;;;;;5084775;28;20032;-78
2021/06/27 00:14:33;;;;;;;3.70;2.75;;;;;;;;;;5079625;28;20052;-78
2021/06/27 00:16:59;;;;;;;6.00;2.85;;;;;;;;;;5075708;28;20044;-78
2021/06/27 00:19:24;;;;;;;7.03;2.72;;;;;;;;;;5066364;28;20040;-78
2021/06/27 00:21:50;;;;;;;7.45;2.83;;;;;;;;;;5065573;28;20079;-78
2021/06/27 00:24:17;;;;;;;4.53;3.30;;;;;;;;;;5047522;28;20060;-78
2021/06/27 00:26:43;;;;;;;4.03;3.22;;;;;;;;;;5071581;28;20049;-78
2021/06/27 00:29:08;;;;;;;9.82;3.72;;;;;;;;;;5080145;28;20119;-78
2021/06/27 00:31:34;;;;;;;6.72;3.20;;;;;;;;;;5083978;28;20599;-78
2021/06/27 00:33:59;;;;;;;4.28;2.83;;;;;;;;;;5084128;28;20040;-78
2021/06/27 00:36:25;;;;;;;5.07;2.50;;;;;;;;;;5082798;28;20089;-78
2021/06/27 00:38:50;;;;;;;8.07;3.10;;;;;;;;;;5083993;28;20481;-78
2021/06/27 00:41:16;;;;;;;5.25;3.15;;;;;;;;;;5084913;28;20024;-78
2021/06/27 00:43:42;;;;;;;6.63;3.47;;;;;;;;;;5081889;28;20070;-78
2021/06/27 00:46:07;;;;;;;8.98;3.45;;;;;;;;;;5076396;28;20059;-78
2021/06/27 00:48:33;;;;;;;5.68;2.88;;;;;;;;;;5075604;28;20052;-78
2021/06/27 00:50:59;;;;;;;8.05;3.15;;;;;;;;;;5080750;28;20039;-78
2021/06/27 00:53:26;;;;;;;6.50;3.55;;;;;;;;;;5083064;28;20374;-78
2021/06/27 00:55:55;;;;;;;8.05;3.97;;;;;;;;;;5083345;28;20114;-78
2021/06/27 00:58:32;;;;;;;4.18;2.78;;;;;;;;;;5082012;28;20029;-78
2021/06/27 01:01:00;;;;;;;4.82;2.78;;;;;;;;;;5082690;28;20398;-78
2021/06/27 01:03:25;;;;;;;5.20;3.00;;;;;;;;;;5082658;28;20047;-78
2021/06/27 01:05:52;;;;;;;15.20;3.15;;;;;;;;;;5081730;28;20032;-78
2021/06/27 01:08:18;;;;;;;11.02;3.30;;;;;;;;;;5080003;28;20032;-78
2021/06/27 01:10:46;;;;;;;4.13;3.17;;;;;;;;;;5081720;28;20040;-78
2021/06/27 01:13:12;;;;;;;4.38;3.05;;;;;;;;;;5080918;28;20032;-78
2021/06/27 01:15:37;;;;;;;14.85;3.60;;;;;;;;;;5080410;28;20082;-78
2021/06/27 01:18:03;;;;;;;7.25;3.33;;;;;;;;;;5078342;28;20028;-78
2021/06/27 01:20:31;;;;;;;5.72;3.25;;;;;;;;;;5074505;28;20043;-78
2021/06/27 01:23:00;;;;;;;5.10;3.20;;;;;;;;;;5080986;28;20043;-78
2021/06/27 01:25:28;;;;;;;4.10;3.42;;;;;;;;;;5080161;28;20028;-78
2021/06/27 01:27:54;;;;;;;8.82;3.47;;;;;;;;;;5076060;28;20044;-77
2021/06/27 01:30:21;;;;;;;7.80;4.10;;;;;;;;;;5078401;28;20479;-78
2021/06/27 01:32:49;;;;;;;5.50;3.65;;;;;;;;;;5077628;28;20097;-77
2021/06/27 01:35:19;;;;;;;13.23;3.97;;;;;;;;;;5074535;28;20056;-77
2021/06/27 01:37:46;;;;;;;9.48;3.55;;;;;;;;;;5073703;28;20032;-77
2021/06/27 01:40:15;;;;;;;9.68;3.53;;;;;;;;;;5074520;28;20065;-77
2021/06/27 01:42:41;;;;;;;10.80;3.38;;;;;;;;;;5074305;28;20386;-77
2021/06/27 01:45:13;;;;;;;6.53;3.42;;;;;;;;;;5074723;28;20045;-77
2021/06/27 01:47:38;;;;;;;5.28;2.80;;;;;;;;;;5074548;28;20170;-78
2021/06/27 01:50:06;;;;;;;9.38;2.97;;;;;;;;;;5065824;28;20104;-77
2021/06/27 01:52:33;;;;;;;5.53;3.00;;;;;;;;;;5065610;28;20032;-78
2021/06/27 01:54:58;;;;;;;13.95;3.50;;;;;;;;;;5061551;28;20039;-77
2021/06/27 01:57:23;;;;;;;7.00;3.00;;;;;;;;;;5072695;28;20044;-77
2021/06/27 01:59:49;;;;;;;17.52;3.72;;;;;;;;;;5073247;28;20032;-77
2021/06/27 02:02:17;;;;;;;7.40;3.97;;;;;;;;;;5073651;28;20037;-77
2021/06/27 02:04:42;;;;;;;6.30;3.42;;;;;;;;;;5076934;28;20047;-77
2021/06/27 02:07:08;;;;;;;7.78;4.10;;;;;;;;;;5073711;28;20032;-77
2021/06/27 02:09:33;;;;;;;8.00;3.78;;;;;;;;;;5073745;28;20465;-77
2021/06/27 02:11:59;;;;;;;12.65;3.92;;;;;;;;;;5074048;28;20048;-77
2021/06/27 02:14:24;;;;;;;7.47;3.20;;;;;;;;;;5072663;28;20127;-77
2021/06/27 02:16:50;;;;;;;4.47;3.05;;;;;;;;;;5074050;28;20032;-77
2021/06/27 02:19:15;;;;;;;10.60;3.22;;;;;;;;;;5074024;28;20355;-77
2021/06/27 02:21:41;;;;;;;5.85;3.10;;;;;;;;;;5075816;28;20454;-77
2021/06/27 02:24:07;;;;;;;6.28;3.42;;;;;;;;;;5061395;28;20386;-77
2021/06/27 02:26:33;;;;;;;5.85;3.20;;;;;;;;;;5069523;28;20036;-77
2021/06/27 02:28:59;;;;;;;10.50;4.05;;;;;;;;;;5072499;28;20106;-77
2021/06/27 02:31:30;;;;;;;3.00;2.70;;;;;;;;;;5076800;28;20032;-77
2021/06/27 02:33:57;;;;;;;3.40;2.67;;;;;;;;;;5076841;28;20446;-77
2021/06/27 02:36:22;;;;;;;7.45;2.90;;;;;;;;;;5076165;28;20450;-77
2021/06/27 02:38:49;;;;;;;5.78;3.88;;;;;;;;;;5076520;28;20090;-77
2021/06/27 02:41:14;;;;;;;8.63;3.75;;;;;;;;;;5067156;28;20043;-77
2021/06/27 02:43:40;;;;;;;9.57;4.07;;;;;;;;;;5057929;28;20029;-77
2021/06/27 02:46:06;;;;;;;16.27;4.78;;;;;;;;;;5055171;28;20052;-77
2021/06/27 02:48:32;;;;;;;12.73;3.70;;;;;;;;;;5056631;28;20108;-77
2021/06/27 02:50:57;;;;;;;6.65;4.70;;;;;;;;;;5056668;28;20558;-77
2021/06/27 02:53:23;;;;;;;9.68;4.20;;;;;;;;;;5073897;28;20036;-77
2021/06/27 02:56:06;;;;;;;12.82;4.20;;;;;;;;;;5075486;28;20040;-77
2021/06/27 02:58:32;;;;;;;12.10;4.78;;;;;;;;;;5075340;28;20485;-78
2021/06/27 03:00:58;;;;;;;7.68;4.28;;;;;;;;;;5074794;28;20043;-78
2021/06/27 03:03:23;;;;;;;9.98;3.10;;;;;;;;;;5075735;28;20033;-78
2021/06/27 03:05:49;;;;;;;14.30;3.78;;;;;;;;;;5076585;28;20032;-78
2021/06/27 03:08:14;;;;;;;9.55;3.70;;;;;;;;;;5075624;28;20040;-78
2021/06/27 03:10:40;;;;;;;8.63;3.33;;;;;;;;;;5075270;28;20090;-78
2021/06/27 03:13:05;;;;;;;13.35;4.32;;;;;;;;;;5075953;28;20036;-77
2021/06/27 03:15:31;;;;;;;8.85;3.78;;;;;;;;;;5075971;28;20032;-78
2021/06/27 03:17:56;;;;;;;10.82;4.18;;;;;;;;;;5076854;28;20444;-78
2021/06/27 03:20:22;;;;;;;9.43;3.70;;;;;;;;;;5076620;28;20064;-77
2021/06/27 03:22:47;;;;;;;14.77;4.03;;;;;;;;;;5077315;28;20036;-77
2021/06/27 03:25:13;;;;;;;13.23;4.50;;;;;;;;;;5079804;28;20109;-78
2021/06/27 03:27:39;;;;;;;15.57;4.25;;;;;;;;;;5079909;28;20482;-78
2021/06/27 03:30:06;;;;;;;12.45;4.20;;;;;;;;;;5064154;28;20037;-77
2021/06/27 03:32:31;;;;;;;12.55;4.53;;;;;;;;;;5058423;28;20033;-78
2021/06/27 03:34:57;;;;;;;16.08;4.43;;;;;;;;;;5060302;28;20039;-78
2021/06/27 03:37:22;;;;;;;11.85;4.80;;;;;;;;;;5060093;28;20036;-78
2021/06/27 03:39:48;;;;;;;11.55;4.20;;;;;;;;;;5074842;28;20127;-77
2021/06/27 03:42:13;;;;;;;9.93;4.40;;;;;;;;;;5059666;28;20045;-78
2021/06/27 03:44:39;;;;;;;11.60;4.57;;;;;;;;;;5060814;28;20041;-78
2021/06/27 03:47:04;;;;;;;14.13;4.50;;;;;;;;;;5061101;28;20067;-78
2021/06/27 03:49:29;;;;;;;17.00;4.38;;;;;;;;;;5059284;28;20119;-78
2021/06/27 03:51:55;;;;;;;16.90;4.85;;;;;;;;;;5060409;28;20040;-77
2021/06/27 03:54:20;;;;;;;6.32;4.57;;;;;;;;;;5059372;28;20045;-77
2021/06/27 03:56:46;;;;;;;13.25;4.90;;;;;;;;;;5075923;28;20039;-77
2021/06/27 03:59:11;;;;;;;16.50;5.68;;;;;;;;;;5076934;28;20462;-77
2021/06/27 04:01:37;;;;;;;11.93;4.50;;;;;;;;;;5076003;28;20048;-77
2021/06/27 04:04:03;;;;;;;7.07;3.60;;;;;;;;;;5075184;28;20037;-77
2021/06/27 04:06:29;;;;;;;12.27;4.63;;;;;;;;;;5073605;28;20032;-77
2021/06/27 04:08:54;;;;;;;16.33;4.57;;;;;;;;;;5074872;28;20036;-77
2021/06/27 04:11:20;;;;;;;15.38;4.20;;;;;;;;;;5094718;28;20032;-77
2021/06/27 04:13:45;;;;;;;16.95;5.40;;;;;;;;;;5087760;28;20039;-77
2021/06/27 04:16:12;;;;;;;17.52;4.32;;;;;;;;;;5056849;28;20047;-77
2021/06/27 04:18:38;;;;;;;10.80;4.20;;;;;;;;;;5063273;28;20481;-77
2021/06/27 04:21:04;;;;;;;7.28;4.53;;;;;;;;;;5074442;28;20032;-77
2021/06/27 04:23:31;;;;;;;13.20;4.10;;;;;;;;;;5073394;28;20031;-77
2021/06/27 04:25:57;;;;;;;12.88;4.50;;;;;;;;;;5074226;28;20085;-77
2021/06/27 04:28:22;;;;;;;11.98;4.75;;;;;;;;;;5073786;28;20511;-77
2021/06/27 04:30:48;;;;;;;10.15;5.03;;;;;;;;;;5073277;28;20044;-77
2021/06/27 04:33:14;;;;;;;8.73;5.03;;;;;;;;;;5072608;28;20085;-77
2021/06/27 04:35:40;;;;;;;9.48;4.43;;;;;;;;;;5073826;28;20119;-78
2021/06/27 04:38:07;;;;;;;13.55;5.43;;;;;;;;;;5074123;28;20024;-77
2021/06/27 04:40:33;;;;;;;11.02;4.57;;;;;;;;;;5074673;28;20033;-77
2021/06/27 04:42:59;;;;;;;10.73;5.43;;;;;;;;;;5073453;28;20052;-77
2021/06/27 04:45:24;;;;;;;9.43;5.25;;;;;;;;;;5073473;28;20053;-77
2021/06/27 04:47:50;;;;;;;10.30;5.57;;;;;;;;;;5073271;28;20111;-77
2021/06/27 04:50:15;;;;;;;7.53;5.40;;;;;;;;;;5063807;28;20033;-77
2021/06/27 04:52:41;;;;;;;7.45;5.25;;;;;;;;;;5061261;28;20036;-77
2021/06/27 04:55:07;;;;;;;15.05;6.00;;;;;;;;;;5053814;28;20058;-77
2021/06/27 04:57:34;;;;;;;11.90;6.25;;;;;;;;;;5053588;28;20082;-77
2021/06/27 05:00:00;;;;;;;14.45;6.40;;;;;;;;;;5054204;28;20040;-77
2021/06/27 05:02:26;;;;;;;10.60;5.70;;;;;;;;;;5052966;28;20065;-77
2021/06/27 05:04:51;;;;;;;11.00;6.22;;;;;;;;;;5053623;28;20445;-77
2021/06/27 05:07:16;;;;;;;10.02;5.78;;;;;;;;;;5053813;28;20037;-77
2021/06/27 05:09:42;;;;;;;10.55;6.25;;;;;;;;;;5053523;28;20037;-77
2021/06/27 05:12:08;;;;;;;14.23;7.45;;;;;;;;;;5054834;28;20111;-78
2021/06/27 05:14:33;;;;;;;13.85;6.43;;;;;;;;;;5069608;28;20055;-77
2021/06/27 05:16:59;;;;;;;13.25;6.05;;;;;;;;;;5073423;28;20032;-77
2021/06/27 05:19:25;;;;;;;19.45;6.13;;;;;;;;;;5073703;28;20032;-77
2021/06/27 05:21:51;;;;;;;14.32;6.57;;;;;;;;;;5073863;28;20122;-77
2021/06/27 05:24:18;;;;;;;16.50;6.40;;;;;;;;;;5073009;28;20067;-77
2021/06/27 05:26:44;;;;;;;17.48;7.07;;;;;;;;;;5073214;28;20044;-77
2021/06/27 05:29:10;;;;;;;17.35;6.75;;;;;;;;;;5072093;28;20059;-77
2021/06/27 05:31:36;;;;;;;10.77;6.90;;;;;;;;;;5071065;28;20036;-77
2021/06/27 05:34:03;;;;;;;17.52;8.13;;;;;;;;;;5074009;28;20102;-78
2021/06/27 05:36:29;;;;;;;16.88;7.82;;;;;;;;;;5069182;28;20024;-77
2021/06/27 05:38:54;;;;;;;15.75;7.45;;;;;;;;;;5055798;28;20039;-77
2021/06/27 05:41:20;;;;;;;15.57;7.57;;;;;;;;;;5074236;28;20382;-77
2021/06/27 05:43:45;;;;;;;13.07;6.95;;;;;;;;;;5074534;28;20143;-77
2021/06/27 05:46:11;;;;;;;10.85;8.48;;;;;;;;;;5074126;28;20097;-77
2021/06/27 05:48:36;;;;;;;13.70;8.85;;;;;;;;;;5073929;28;20028;-77
2021/06/27 05:51:01;;;;;;;19.13;8.25;;;;;;;;;;5072999;28;20066;-77
2021/06/27 05:53:27;;;;;;;11.02;6.75;;;;;;;;;;5056086;28;20037;-77
2021/06/27 05:56:09;;;;;;;10.13;7.30;;;;;;;;;;5053891;28;20406;-77
2021/06/27 05:58:40;;;;;;;8.70;7.13;;;;;;;;;;5054365;28;20041;-77
2021/06/27 06:01:06;;;;;;;13.00;7.05;;;;;;;;;;5069145;28;20041;-77
2021/06/27 06:03:33;;;;;;;12.57;6.90;;;;;;;;;;5055495;28;20035;-77
2021/06/27 06:05:58;;;;;;;11.60;7.07;;;;;;;;;;5059382;28;20036;-78
2021/06/27 06:08:24;;;;;;;13.10;7.40;;;;;;;;;;5060980;28;20037;-78
2021/06/27 06:10:49;;;;;;;22.20;8.15;;;;;;;;;;5076753;28;20403;-78
2021/06/27 06:13:15;;;;;;;15.20;6.35;;;;;;;;;;5060309;28;20060;-78
2021/06/27 06:15:40;;;;;;;12.27;5.75;;;;;;;;;;5058818;28;20033;-75
2021/06/27 06:18:06;;;;;;;14.27;5.95;;;;;;;;;;5057088;28;20033;-76
2021/06/27 06:20:31;;;;;;;14.88;5.78;;;;;;;;;;5056430;28;20044;-76
2021/06/27 06:22:57;;;;;;;13.65;6.32;;;;;;;;;;5070258;28;20032;-76
2021/06/27 06:25:22;;;;;;;17.20;6.47;;;;;;;;;;5076209;28;20107;-77
2021/06/27 06:27:49;;;;;;;7.30;5.15;;;;;;;;;;5056089;28;20028;-74
2021/06/27 06:30:15;;;;;;;8.80;5.15;;;;;;;;;;5074575;28;20082;-74
2021/06/27 06:32:41;;;;;;;9.52;5.25;;;;;;;;;;5075798;28;20463;-75
2021/06/27 06:35:06;;;;;;;9.27;4.50;;;;;;;;;;5075985;28;20101;-75
2021/06/27 06:37:32;;;;;;;7.63;4.35;;;;;;;;;;5076619;28;20394;-75
2021/06/27 06:39:57;;;;;;;6.70;4.43;;;;;;;;;;5071908;28;20033;-75
2021/06/27 06:42:23;;;;;;;6.32;4.10;;;;;;;;;;5065169;28;20056;-75
2021/06/27 06:44:48;;;;;;;8.07;4.10;;;;;;;;;;5055179;28;20539;-76
2021/06/27 06:47:14;;;;;;;11.50;3.72;;;;;;;;;;5073755;28;20069;-75
2021/06/27 06:49:39;;;;;;;9.23;3.72;;;;;;;;;;5071518;28;20040;-75
2021/06/27 06:52:05;;;;;;;8.85;4.13;;;;;;;;;;5064680;28;20527;-76
2021/06/27 06:54:30;;;;;;;6.88;3.58;;;;;;;;;;5070063;28;20055;-76
2021/06/27 06:56:56;;;;;;;8.48;3.60;;;;;;;;;;5075379;28;20524;-76
2021/06/27 06:59:21;;;;;;;5.85;3.17;;;;;;;;;;5075165;28;20029;-76
2021/06/27 07:01:46;;;;;;;7.35;2.85;;;;;;;;;;5076593;28;20028;-76
2021/06/27 07:04:12;;;;;;;5.95;3.00;;;;;;;;;;5075778;28;20402;-76
2021/06/27 07:06:37;;;;;;;4.63;2.88;;;;;;;;;;5073281;28;20040;-75
2021/06/27 07:09:03;;;;;;;9.23;2.85;;;;;;;;;;5074673;28;20024;-75
2021/06/27 07:11:29;;;;;;;3.88;2.13;;;;;;;;;;5075293;28;20039;-79
2021/06/27 07:13:54;;;;;;;3.25;1.85;;;;;;;;;;5075078;28;20103;-77
2021/06/27 07:16:19;;;;;;;4.40;2.28;;;;;;;;;;5076363;28;20111;-77
2021/06/27 07:18:45;;;;;;;2.97;2.22;;;;;;;;;;5057070;28;20025;-78
2021/06/27 07:21:10;;;;;;;4.47;2.33;;;;;;;;;;5075130;28;20506;-77
2021/06/27 07:23:36;;;;;;;4.68;2.50;;;;;;;;;;5084231;28;20043;-80
2021/06/27 07:26:02;;;;;;;5.97;2.60;;;;;;;;;;5085385;28;20024;-78
2021/06/27 07:28:27;;;;;;;5.20;2.47;;;;;;;;;;5088335;28;20056;-78
2021/06/27 07:30:53;;;;;;;3.88;2.47;;;;;;;;;;5083724;28;20059;-77
2021/06/27 07:33:19;;;;;;;5.35;2.40;;;;;;;;;;5087883;28;20059;-77
2021/06/27 07:35:44;;;;;;;3.05;2.50;;;;;;;;;;5081606;28;20048;-77
2021/06/27 07:38:13;;;;;;;2.78;2.17;;;;;;;;;;5060779;28;20028;-84
2021/06/27 07:40:39;;;;;;;7.18;2.40;;;;;;;;;;5080747;28;20062;-78
2021/06/27 07:43:05;;;;;;;7.80;2.60;;;;;;;;;;5083989;28;20035;-78
2021/06/27 07:45:30;;;;;;;8.63;2.58;;;;;;;;;;5075240;28;20052;-77
2021/06/27 07:47:56;;;;;;;2.50;2.10;;;;;;;;;;5078140;28;20043;-78
2021/06/27 07:50:21;;;;;;;3.65;1.90;;;;;;;;;;5080980;28;20040;-80
2021/06/27 07:52:46;;;;;;;7.13;2.45;;;;;;;;;;5086780;28;20033;-80
2021/06/27 07:55:12;;;;;;;4.75;2.58;;;;;;;;;;5087502;28;20068;-80
2021/06/27 07:57:38;;;;;;;3.22;2.30;;;;;;;;;;5085569;28;20040;-80
2021/06/27 08:00:17;;;;;;;6.45;2.30;;;;;;;;;;5085393;28;20041;-80
2021/06/27 08:02:42;;;;;;;5.65;2.25;;;;;;;;;;5086578;28;20037;-80
2021/06/27 08:05:09;;;;;;;3.05;2.00;;;;;;;;;;5085646;28;20040;-80
2021/06/27 08:07:34;;;;;;;2.35;1.88;;;;;;;;;;5085068;28;20113;-80
2021/06/27 08:10:00;;;;;;;4.93;2.30;;;;;;;;;;5086019;28;20068;-80
2021/06/27 08:12:26;;;;;;;3.95;2.00;;;;;;;;;;5085212;28;20036;-80
2021/06/27 08:14:51;;;;;;;5.38;2.13;;;;;;;;;;5084406;28;20058;-80
2021/06/27 08:17:17;;;;;;;2.50;2.10;;;;;;;;;;5083226;28;20047;-80
2021/06/27 08:19:42;;;;;;;3.33;2.13;;;;;;;;;;5081870;28;20048;-80
2021/06/27 08:22:07;;;;;;;3.40;2.25;;;;;;;;;;5081556;28;20028;-80
2021/06/27 08:24:33;;;;;;;3.03;1.90;;;;;;;;;;5083437;28;20101;-80
2021/06/27 08:26:58;;;;;;;5.03;2.58;;;;;;;;;;5083051;28;20107;-79
2021/06/27 08:29:24;;;;;;;3.22;2.03;;;;;;;;;;5082117;28;20036;-80
2021/06/27 08:31:49;;;;;;;11.48;1.80;;;;;;;;;;5083022;28;20040;-79
2021/06/27 08:34:15;;;;;;;4.38;2.00;;;;;;;;;;5082822;28;20032;-79
2021/06/27 08:36:40;;;;;;;2.97;2.00;;;;;;;;;;5080908;28;20043;-80
2021/06/27 08:39:06;;;;;;;3.83;1.92;;;;;;;;;;5081790;28;20028;-80
2021/06/27 08:41:31;;;;;;;5.07;1.90;;;;;;;;;;5082503;28;20524;-80
2021/06/27 08:43:57;;;;;;;2.92;1.95;;;;;;;;;;5080083;28;20044;-80
2021/06/27 08:46:23;;;;;;;2.45;1.95;;;;;;;;;;5081299;28;20036;-80
2021/06/27 08:48:49;;;;;;;3.92;2.40;;;;;;;;;;5076123;28;20376;-80
2021/06/27 08:51:15;;;;;;;2.95;1.83;;;;;;;;;;5091594;28;20040;-81
2021/06/27 08:53:42;;;;;;;5.35;2.20;;;;;;;;;;5081309;28;20039;-77
2021/06/27 08:56:10;;;;;;;3.58;2.40;;;;;;;;;;5077394;28;20029;-79
2021/06/27 08:58:40;;;;;;;2.85;2.17;;;;;;;;;;5075015;28;20028;-79
2021/06/27 09:01:10;;;;;;;2.95;2.30;;;;;;;;;;5078144;28;20543;-79
2021/06/27 09:03:37;;;;;;;7.13;2.10;;;;;;;;;;5075504;28;20066;-79
2021/06/27 09:06:02;;;;;;;2.67;1.77;;;;;;;;;;5074983;28;20561;-77
2021/06/27 09:08:27;;;;;;;9.52;2.00;;;;;;;;;;5075250;28;20036;-79
2021/06/27 09:10:54;;;;;;;5.53;2.00;;;;;;;;;;5075171;28;20607;-77
2021/06/27 09:13:43;;;;;;;6.47;2.10;;;;;;;;;;5073333;28;20036;-76
2021/06/27 09:16:20;;;;;;;5.13;1.90;;;;;;;;;;5073187;28;20139;-77
2021/06/27 09:18:46;;;;;;;2.17;1.95;;;;;;;;;;5074425;28;20064;-77
2021/06/27 09:21:11;;;;;;;2.97;1.50;;;;;;;;;;5073595;28;20075;-77
2021/06/27 09:23:42;;;;;;;5.97;2.10;;;;;;;;;;5072883;28;20067;-77
2021/06/27 09:26:09;;;;;;;2.75;1.90;;;;;;;;;;5075131;28;20100;-79
2021/06/27 09:28:42;;;;;;;1.95;1.75;;;;;;;;;;5071585;28;20033;-77
2021/06/27 09:31:07;;;;;;;3.67;1.58;;;;;;;;;;5071103;28;20083;-79
2021/06/27 09:33:33;;;;;;;3.58;1.60;;;;;;;;;;5075302;28;20036;-77
2021/06/27 09:36:06;;;;;;;2.63;1.80;;;;;;;;;;5077577;28;20075;-78
2021/06/27 09:38:39;;;;;;;6.30;1.60;;;;;;;;;;5078129;28;20124;-77
2021/06/27 09:41:29;;;;;;;2.67;2.00;;;;;;;;;;5081342;28;20055;-77
2021/06/27 09:43:58;;;;;;;3.72;1.92;;;;;;;;;;5084417;28;20064;-78
2021/06/27 09:46:36;;;;;;;3.78;1.98;;;;;;;;;;5085825;28;20421;-77
2021/06/27 09:49:08;;;;;;;3.95;2.20;;;;;;;;;;5082573;28;20051;-78
2021/06/27 09:51:35;;;;;;;5.78;2.20;;;;;;;;;;5082223;28;20054;-77
2021/06/27 09:54:01;;;;;;;4.70;1.90;;;;;;;;;;5081357;28;20063;-77
2021/06/27 09:56:27;;;;;;;2.80;1.77;;;;;;;;;;5080460;28;20482;-78
2021/06/27 09:58:58;;;;;;;4.88;2.03;;;;;;;;;;5087219;28;20040;-78
2021/06/27 10:01:25;;;;;;;9.77;2.47;;;;;;;;;;5084103;28;20068;-78
2021/06/27 10:03:55;;;;;;;2.10;1.60;;;;;;;;;;5081436;28;20136;-78
2021/06/27 10:06:35;;;;;;;2.08;1.88;;;;;;;;;;5080500;28;20473;-78
2021/06/27 10:09:12;;;;;;;2.85;1.80;;;;;;;;;;5076346;28;20035;-77
2021/06/27 10:11:37;;;;;;;7.93;2.05;;;;;;;;;;5074872;28;20036;-77
2021/06/27 10:14:09;;;;;;;2.30;1.90;;;;;;;;;;5076996;28;20047;-77
2021/06/27 10:16:35;;;;;;;6.45;1.90;;;;;;;;;;5100880;28;20089;-78
2021/06/27 10:19:02;;;;;;;3.38;1.70;;;;;;;;;;5076721;28;20089;-77
2021/06/27 10:21:29;;;;;;;3.38;1.90;;;;;;;;;;5076280;28;20131;-77
2021/06/27 10:23:56;;;;;;;2.65;1.90;;;;;;;;;;5076233;28;20024;-77
2021/06/27 10:26:24;;;;;;;1.95;1.70;;;;;;;;;;5076664;28;20085;-77
2021/06/27 10:28:52;;;;;;;7.18;2.13;;;;;;;;;;5076428;28;20390;-77
2021/06/27 10:31:19;;;;;;;3.78;1.95;;;;;;;;;;5076638;28;20036;-77
2021/06/27 10:33:46;;;;;;;2.08;1.40;;;;;;;;;;5076827;28;20486;-77
2021/06/27 10:36:14;;;;;;;2.85;1.55;;;;;;;;;;5075432;28;20036;-77
2021/06/27 10:38:46;;;;;;;3.28;1.70;;;;;;;;;;5076021;28;20028;-77
2021/06/27 10:41:12;;;;;;;2.72;1.92;;;;;;;;;;5076366;28;20351;-77
2021/06/27 10:43:59;;;;;;;6.22;3.20;;;;;;;;;;5076418;28;20123;-77
2021/06/27 10:46:48;;;;;;;6.97;4.10;;;;;;;;;;5076469;28;20490;-77
2021/06/27 10:49:45;;;;;;;3.35;1.80;;;;;;;;;;5076261;28;20044;-77
2021/06/27 10:52:13;;;;;;;3.95;1.98;;;;;;;;;;5075223;28;20036;-77
2021/06/27 10:54:38;;;;;;;11.82;2.20;;;;;;;;;;5075538;28;20509;-77
2021/06/27 10:57:08;;;;;;;4.18;1.73;;;;;;;;;;5075157;28;20048;-77
2021/06/27 10:59:51;;;;;;;3.45;1.70;;;;;;;;;;5073551;28;20029;-76
2021/06/27 11:02:25;;;;;;;3.45;2.00;;;;;;;;;;5075410;28;20040;-76
2021/06/27 11:04:53;;;;;;;6.05;2.00;;;;;;;;;;5075429;28;20386;-76
2021/06/27 11:07:35;;;;;;;2.38;1.60;;;;;;;;;;5075056;28;20474;-76
2021/06/27 11:10:19;;;;;;;4.32;1.88;;;;;;;;;;5075484;28;20037;-76
2021/06/27 11:13:00;;;;;;;4.03;2.20;;;;;;;;;;5075419;28;20036;-76
2021/06/27 11:15:37;;;;;;;2.90;1.80;;;;;;;;;;5074859;28;20151;-76
2021/06/27 11:18:07;;;;;;;5.15;1.90;;;;;;;;;;5075004;28;20089;-76
2021/06/27 11:20:53;;;;;;;3.10;2.25;;;;;;;;;;5075401;28;20036;-76
2021/06/27 11:23:20;;;;;;;3.35;2.30;;;;;;;;;;5073627;28;20433;-76
2021/06/27 11:25:47;;;;;;;5.45;3.15;;;;;;;;;;5075004;28;20044;-76
2021/06/27 11:28:21;;;;;;;5.10;2.47;;;;;;;;;;5073828;28;20458;-76
2021/06/27 11:30:50;;;;;;;4.32;2.53;;;;;;;;;;5075090;28;20032;-76
2021/06/27 11:33:21;;;;;;;6.35;2.13;;;;;;;;;;5074910;28;20032;-76
2021/06/27 11:35:56;;;;;;;5.30;2.25;;;;;;;;;;5074912;28;20422;-76
2021/06/27 11:38:40;;;;;;;2.92;2.00;;;;;;;;;;5074737;28;20116;-76
2021/06/27 11:41:17;;;;;;;2.25;1.98;;;;;;;;;;5074697;28;20036;-76
2021/06/27 11:43:49;;;;;;;4.03;2.28;;;;;;;;;;5074650;28;20032;-76
2021/06/27 11:46:32;;;;;;;8.50;2.22;;;;;;;;;;5074533;28;20052;-76
2021/06/27 11:48:59;;;;;;;1.95;1.75;;;;;;;;;;5074449;28;20054;-76
2021/06/27 11:51:35;;;;;;;4.18;1.60;;;;;;;;;;5073128;28;20048;-76
2021/06/27 11:54:02;;;;;;;3.70;1.77;;;;;;;;;;5073409;28;20038;-76
2021/06/27 11:56:27;;;;;;;3.42;1.60;;;;;;;;;;5073502;28;20044;-76
2021/06/27 11:59:11;;;;;;;4.70;2.08;;;;;;;;;;5073142;28;20046;-76
2021/06/27 12:01:36;;;;;;;2.75;1.70;;;;;;;;;;5074346;28;20124;-76
2021/06/27 12:04:02;;;;;;;2.85;1.60;;;;;;;;;;5073227;28;20115;-76
2021/06/27 12:06:36;;;;;;;2.45;1.77;;;;;;;;;;5073158;28;20039;-76
2021/06/27 12:09:04;;;;;;;2.50;1.70;;;;;;;;;;5073584;28;20044;-76
2021/06/27 12:11:29;;;;;;;2.78;2.03;;;;;;;;;;5073162;28;20048;-76
2021/06/27 12:13:56;;;;;;;2.58;1.75;;;;;;;;;;5074052;28;20036;-77
2021/06/27 12:16:31;;;;;;;1.88;1.70;;;;;;;;;;5074133;28;20164;-76
2021/06/27 12:19:00;;;;;;;6.07;2.00;;;;;;;;;;5074183;28;20148;-77
2021/06/27 12:21:26;;;;;;;4.13;1.70;;;;;;;;;;5072271;28;20379;-76
2021/06/27 12:23:56;;;;;;;3.08;1.80;;;;;;;;;;5065860;28;20370;-76
2021/06/27 12:26:23;;;;;;;1.83;1.58;;;;;;;;;;5074351;28;20460;-76
2021/06/27 12:28:54;;;;;;;2.85;1.70;;;;;;;;;;5072334;28;20048;-76
2021/06/27 12:31:28;;;;;;;1.85;1.70;;;;;;;;;;5073954;28;20163;-76
2021/06/27 12:33:53;;;;;;;2.17;1.60;;;;;;;;;;5072061;28;20036;-76
2021/06/27 12:36:23;;;;;;;2.08;1.35;;;;;;;;;;5073852;28;20037;-77
2021/06/27 12:38:54;;;;;;;2.17;1.90;;;;;;;;;;5071894;28;20603;-77
2021/06/27 12:41:26;;;;;;;2.60;1.70;;;;;;;;;;5072631;28;20426;-77
2021/06/27 12:43:57;;;;;;;2.15;1.80;;;;;;;;;;5073482;28;20051;-77
2021/06/27 12:46:26;;;;;;;4.60;1.70;;;;;;;;;;5073560;28;20040;-76
2021/06/27 12:48:59;;;;;;;1.45;1.25;;;;;;;;;;5074274;28;20051;-76
2021/06/27 12:51:32;;;;;;;3.38;1.58;;;;;;;;;;5072702;28;20032;-76
2021/06/27 12:54:07;;;;;;;2.45;1.60;;;;;;;;;;5069687;28;20124;-76
2021/06/27 12:56:42;;;;;;;4.28;1.80;;;;;;;;;;5072914;28;20063;-76
2021/06/27 12:59:10;;;;;;;2.08;1.88;;;;;;;;;;5071904;28;20041;-76
2021/06/27 13:02:13;;;;;;;4.05;1.60;;;;;;;;;;5071288;28;20040;-76
2021/06/27 13:04:50;;;;;;;1.90;1.60;;;;;;;;;;5071002;28;20177;-76
2021/06/27 13:07:22;;;;;;;6.30;1.77;;;;;;;;;;5065051;28;20513;-78
2021/06/27 13:10:18;;;;;;;1.38;1.27;;;;;;;;;;5074314;28;20035;-76
2021/06/27 13:12:46;;;;;;;3.15;1.80;;;;;;;;;;5070014;28;20036;-77
2021/06/27 13:15:17;;;;;;;3.85;1.52;;;;;;;;;;5075735;28;20040;-76
2021/06/27 13:18:04;;;;;;;3.42;1.90;;;;;;;;;;5075751;28;20077;-79
2021/06/27 13:20:35;;;;;;;4.18;1.80;;;;;;;;;;5080338;28;20024;-78
2021/06/27 13:23:14;;;;;;;2.45;1.50;;;;;;;;;;5075209;28;20045;-79
2021/06/27 13:25:41;;;;;;;3.00;2.53;;;;;;;;;;5079159;28;20047;-78
2021/06/27 13:28:21;;;;;;;1.75;1.65;;;;;;;;;;5082301;28;20052;-78
2021/06/27 13:30:49;;;;;;;3.72;2.22;;;;;;;;;;5075684;28;20043;-79
2021/06/27 13:33:14;;;;;;;2.33;1.77;;;;;;;;;;5072333;28;20043;-78
2021/06/27 13:35:46;;;;;;;4.10;2.55;;;;;;;;;;5078266;28;20041;-79
2021/06/27 13:38:13;;;;;;;2.65;1.50;;;;;;;;;;5074267;28;20036;-78
2021/06/27 13:40:50;;;;;;;2.58;1.70;;;;;;;;;;5073161;28;20055;-78
2021/06/27 13:43:17;;;;;;;2.33;1.63;;;;;;;;;;5041995;28;20549;-77
2021/06/27 13:45:43;;;;;;;2.65;1.77;;;;;;;;;;5069598;28;20048;-78
2021/06/27 13:48:09;;;;;;;8.10;1.98;;;;;;;;;;5069664;28;20136;-77
2021/06/27 13:50:35;;;;;;;2.75;1.65;;;;;;;;;;5066585;28;20045;-76
2021/06/27 13:53:00;;;;;;;2.03;1.30;;;;;;;;;;5073454;28;20098;-77
2021/06/27 13:55:27;;;;;;;4.65;1.73;;;;;;;;;;5071277;28;20467;-77
2021/06/27 13:57:53;;;;;;;1.60;1.50;;;;;;;;;;5072420;28;20537;-77
2021/06/27 14:00:20;;;;;;;4.80;1.83;;;;;;;;;;5079837;28;20120;-79
2021/06/27 14:02:46;;;;;;;1.55;1.40;;;;;;;;;;5085287;28;20028;-77
2021/06/27 14:05:15;;;;;;;3.30;1.67;;;;;;;;;;5078628;28;20522;-77
2021/06/27 14:07:41;;;;;;;7.80;4.13;;;;;;;;;;5078559;28;20028;-77
2021/06/27 14:10:09;;;;;;;4.28;1.90;;;;;;;;;;5077310;28;20024;-77
2021/06/27 14:12:34;;;;;;;4.10;1.70;;;;;;;;;;5076260;28;20090;-77
2021/06/27 14:15:00;;;;;;;1.58;1.42;;;;;;;;;;5069197;28;20025;-78
2021/06/27 14:17:28;;;;;;;4.35;1.70;;;;;;;;;;5072668;28;20029;-77
2021/06/27 14:19:54;;;;;;;2.50;1.67;;;;;;;;;;5069699;28;20052;-78
2021/06/27 14:22:21;;;;;;;2.67;1.65;;;;;;;;;;5070565;28;20060;-78
2021/06/27 14:24:46;;;;;;;3.08;1.90;;;;;;;;;;5068529;28;20036;-78
2021/06/27 14:27:12;;;;;;;3.42;1.90;;;;;;;;;;5075212;28;20043;-78
2021/06/27 14:29:37;;;;;;;3.45;1.60;;;;;;;;;;5076213;28;20044;-78
2021/06/27 14:32:06;;;;;;;2.33;1.60;;;;;;;;;;5070489;28;20040;-77
2021/06/27 14:34:32;;;;;;;3.15;2.15;;;;;;;;;;5073313;28;20028;-77
2021/06/27 14:36:58;;;;;;;1.67;1.58;;;;;;;;;;5067781;28;20063;-77
2021/06/27 14:39:26;;;;;;;6.75;1.80;;;;;;;;;;5059845;28;20049;-77
2021/06/27 14:41:53;;;;;;;2.17;1.67;;;;;;;;;;5076862;28;20036;-78
2021/06/27 14:44:20;;;;;;;2.17;1.73;;;;;;;;;;5074136;28;20036;-77
2021/06/27 14:46:50;;;;;;;2.10;1.88;;;;;;;;;;5080495;28;20445;-79